Time;durP1;ratioP1;P1;durP2;ratioP2;P2;SDS_P1;SDS_P2;PMS_P1;PMS_P2;Temp;Humidity;BMP_temperature;BMP_pressure;BME280_temperature;BME280_humidity;BME280_pressure;Samples;Min_cycle;Max_cycle;Signal;HPM_P1;HPM_P2
2023/03/04 00:00:10;;;;;;;;;62.00;48.75;;;;;7.51;62.96;99555.19;5048878;28;8880;-73
2023/03/04 00:03:00;;;;;;;;;65.75;50.25;;;;;7.54;62.78;99555.19;5048657;28;9767;-76
2023/03/04 00:05:30;;;;;;;;;70.75;54.25;;;;;7.68;62.33;99567.28;5048755;28;8875;-75
2023/03/04 00:07:58;;;;;;;;;77.25;57.50;;;;;7.76;62.07;99561.06;5048552;28;8873;-75
2023/03/04 00:10:27;;;;;;;;;75.25;55.25;;;;;7.94;61.52;99560.03;5013396;28;8841;-73
2023/03/04 00:12:56;;;;;;;;;67.25;50.75;;;;;8.09;61.15;99549.41;5047683;28;8899;-74
2023/03/04 00:15:25;;;;;;;;;69.50;55.00;;;;;7.97;60.79;99557.41;5047912;28;8865;-74
2023/03/04 00:17:53;;;;;;;;;69.75;52.50;;;;;7.89;60.91;99547.00;5048301;28;8983;-74
2023/03/04 00:20:24;;;;;;;;;65.25;51.50;;;;;7.94;61.33;99553.06;5048188;28;8860;-74
2023/03/04 00:22:52;;;;;;;;;67.50;52.75;;;;;7.15;63.08;99557.22;5048226;28;8861;-76
2023/03/04 00:25:21;;;;;;;;;65.50;52.75;;;;;7.24;62.91;99552.78;5047909;28;9628;-73
2023/03/04 00:27:50;;;;;;;;;68.00;54.00;;;;;7.54;62.65;99545.59;5046812;28;8864;-75
2023/03/04 00:30:19;;;;;;;;;74.50;56.25;;;;;7.72;61.54;99555.03;5050786;28;8837;-74
2023/03/04 00:32:48;;;;;;;;;65.75;51.75;;;;;7.91;61.74;99550.50;5082388;28;9027;-75
2023/03/04 00:35:17;;;;;;;;;63.50;53.50;;;;;7.95;60.49;99541.72;5049175;28;8871;-75
2023/03/04 00:37:48;;;;;;;;;64.75;51.00;;;;;7.98;60.53;99544.28;5063014;28;9637;-73
2023/03/04 00:40:17;;;;;;;;;70.50;51.75;;;;;8.00;60.57;99537.28;5013089;28;8837;-74
2023/03/04 00:42:46;;;;;;;;;66.00;49.25;;;;;7.82;60.93;99540.97;5030216;28;8877;-76
2023/03/04 00:45:15;;;;;;;;;69.75;56.50;;;;;7.60;61.53;99540.28;5067548;28;8882;-74
2023/03/04 00:47:44;;;;;;;;;66.00;51.00;;;;;7.72;61.54;99538.44;5023572;28;8992;-73
2023/03/04 00:50:13;;;;;;;;;68.50;54.00;;;;;7.82;60.60;99534.88;5045245;28;8845;-74
2023/03/04 00:52:41;;;;;;;;;62.75;49.00;;;;;7.77;60.99;99532.28;5075853;28;8861;-74
2023/03/04 00:55:12;;;;;;;;;65.00;51.75;;;;;7.92;60.83;99518.19;5044548;28;8891;-74
2023/03/04 00:57:40;;;;;;;;;63.50;49.25;;;;;8.01;59.98;99509.38;5046427;28;8856;-75
2023/03/04 01:00:11;;;;;;;;;70.25;55.50;;;;;8.10;60.20;99517.13;5078422;28;8959;-75
2023/03/04 01:02:40;;;;;;;;;67.50;51.00;;;;;7.99;59.68;99516.38;5043142;28;8877;-74
2023/03/04 01:05:09;;;;;;;;;62.25;50.50;;;;;7.66;61.08;99519.31;5025464;28;8947;-75
2023/03/04 01:07:38;;;;;;;;;65.25;52.75;;;;;7.79;60.65;99512.19;5042025;28;8880;-74
2023/03/04 01:10:09;;;;;;;;;73.75;54.75;;;;;7.91;60.25;99518.19;5043091;28;8984;-73
2023/03/04 01:12:40;;;;;;;;;69.75;54.00;;;;;7.76;59.91;99511.34;5043315;28;8846;-74
2023/03/04 01:15:10;;;;;;;;;60.75;46.75;;;;;7.46;60.79;99516.88;4993796;28;8886;-73
2023/03/04 01:17:40;;;;;;;;;65.50;50.50;;;;;7.77;60.15;99508.72;5023397;28;8972;-74
2023/03/04 01:20:10;;;;;;;;;62.00;50.00;;;;;7.36;61.19;99524.81;5007074;28;9609;-73
2023/03/04 01:22:39;;;;;;;;;66.75;52.00;;;;;7.66;60.31;99521.06;5023182;28;8845;-74
2023/03/04 01:25:09;;;;;;;;;63.50;50.00;;;;;7.82;60.72;99517.41;5022189;28;8857;-74
2023/03/04 01:27:39;;;;;;;;;65.75;49.25;;;;;7.78;60.41;99515.72;5022534;28;8876;-74
2023/03/04 01:30:10;;;;;;;;;58.50;47.00;;;;;7.90;59.63;99509.47;4958815;28;8876;-75
2023/03/04 01:32:38;;;;;;;;;66.00;50.50;;;;;7.62;61.18;99517.59;5022925;28;8876;-73
2023/03/04 01:35:08;;;;;;;;;62.00;49.25;;;;;7.72;60.16;99526.25;5022933;28;8861;-74
2023/03/04 01:37:37;;;;;;;;;50.25;42.00;;;;;7.75;60.23;99522.72;5006641;28;8869;-74
2023/03/04 01:40:07;;;;;;;;;68.75;51.50;;;;;7.36;61.84;99522.19;5013706;28;8955;-72
2023/03/04 01:42:36;;;;;;;;;62.75;50.75;;;;;7.23;61.47;99517.06;5026263;28;8908;-76
2023/03/04 01:45:14;;;;;;;;;65.00;51.25;;;;;7.21;61.85;99516.22;5045421;28;8866;-76
2023/03/04 01:47:47;;;;;;;;;60.50;48.25;;;;;7.27;61.12;99513.56;5063087;28;8862;-73
2023/03/04 01:50:21;;;;;;;;;67.75;52.00;;;;;7.52;60.98;99515.97;5081560;28;8888;-74
2023/03/04 01:52:50;;;;;;;;;64.75;51.75;;;;;7.52;60.09;99522.94;5030469;28;8851;-72
2023/03/04 01:55:22;;;;;;;;;64.00;49.25;;;;;7.55;60.35;99525.50;5063338;28;8876;-72
2023/03/04 01:57:52;;;;;;;;;57.50;45.75;;;;;7.60;60.51;99526.34;5064932;28;8938;-74
2023/03/04 02:00:29;;;;;;;;;68.50;51.75;;;;;7.40;60.71;99521.28;5066391;28;8928;-73
2023/03/04 02:03:01;;;;;;;;;68.50;54.75;;;;;7.31;61.70;99526.63;5049624;28;8863;-72
2023/03/04 02:05:30;;;;;;;;;66.00;50.25;;;;;7.36;61.28;99532.66;5066697;28;8867;-74
2023/03/04 02:08:01;;;;;;;;;66.25;52.75;;;;;6.94;63.00;99524.25;5066419;28;8877;-73
2023/03/04 02:10:30;;;;;;;;;69.00;52.00;;;;;7.28;61.89;99520.50;5066505;28;8909;-74
2023/03/04 02:12:59;;;;;;;;;70.00;54.25;;;;;5.78;67.27;99526.44;5083456;28;8879;-74
2023/03/04 02:15:30;;;;;;;;;63.25;50.75;;;;;6.02;66.65;99525.50;5017093;28;8869;-73
2023/03/04 02:18:00;;;;;;;;;64.00;48.00;;;;;6.41;65.24;99521.00;5064580;28;8876;-73
2023/03/04 02:20:40;;;;;;;;;67.50;52.25;;;;;6.81;64.05;99528.63;5064897;28;8844;-74
2023/03/04 02:23:17;;;;;;;;;63.75;48.50;;;;;7.11;62.94;99518.91;5066413;28;8864;-73
2023/03/04 02:25:52;;;;;;;;;65.00;51.75;;;;;6.92;63.28;99515.56;5000213;28;8877;-74
2023/03/04 02:28:23;;;;;;;;;68.00;51.00;;;;;6.90;63.06;99508.56;5002172;28;8839;-74
2023/03/04 02:30:52;;;;;;;;;68.75;51.00;;;;;7.09;63.21;99513.69;5030015;28;8855;-73
2023/03/04 02:33:21;;;;;;;;;66.50;51.75;;;;;7.32;61.89;99502.19;5083810;28;9586;-75
2023/03/04 02:35:50;;;;;;;;;69.00;54.00;;;;;7.14;62.95;99508.44;5030079;28;8853;-73
2023/03/04 02:38:20;;;;;;;;;68.00;55.00;;;;;7.18;62.43;99510.16;5064102;28;9715;-74
2023/03/04 02:40:53;;;;;;;;;74.00;56.00;;;;;7.23;62.32;99504.00;5064080;28;8885;-73
2023/03/04 02:43:23;;;;;;;;;74.00;57.25;;;;;7.34;61.85;99503.03;5083930;28;8934;-73
2023/03/04 02:45:53;;;;;;;;;70.00;55.00;;;;;7.23;61.72;99500.50;5065213;28;8853;-73
2023/03/04 02:48:22;;;;;;;;;67.00;55.25;;;;;7.34;61.46;99497.81;5028034;28;8937;-73
2023/03/04 02:50:53;;;;;;;;;72.25;57.50;;;;;7.29;61.38;99498.72;5069073;28;8893;-75
2023/03/04 02:53:24;;;;;;;;;74.25;57.75;;;;;7.26;61.61;99500.47;5044798;28;8865;-74
2023/03/04 02:55:53;;;;;;;;;71.75;56.75;;;;;7.43;60.99;99495.97;5044972;28;8888;-75
2023/03/04 02:58:25;;;;;;;;;71.00;56.00;;;;;7.62;60.47;99498.41;5028798;28;8876;-74
2023/03/04 03:00:55;;;;;;;;;74.00;56.25;;;;;7.68;60.34;99500.97;5029580;28;8841;-75
2023/03/04 03:03:25;;;;;;;;;67.00;55.50;;;;;7.78;59.85;99493.88;5065323;28;8866;-74
2023/03/04 03:05:54;;;;;;;;;71.75;55.75;;;;;7.63;60.33;99501.03;5065095;28;8884;-74
2023/03/04 03:08:23;;;;;;;;;72.50;57.50;;;;;7.46;61.00;99500.31;5048642;28;8868;-74
2023/03/04 03:10:52;;;;;;;;;72.75;55.50;;;;;7.53;60.28;99499.38;5047072;28;8848;-72
2023/03/04 03:13:21;;;;;;;;;69.25;54.25;;;;;7.66;60.20;99495.78;5048550;28;9019;-71
2023/03/04 03:15:51;;;;;;;;;75.00;57.25;;;;;7.04;61.97;99503.28;5064515;28;8861;-75
2023/03/04 03:18:20;;;;;;;;;80.25;59.50;;;;;6.94;62.87;99498.97;5086458;28;8869;-74
2023/03/04 03:20:49;;;;;;;;;79.00;59.00;;;;;6.69;63.71;99503.47;5086645;28;8845;-74
2023/03/04 03:23:19;;;;;;;;;74.50;59.75;;;;;6.84;62.96;99490.31;5069905;28;8830;-73
2023/03/04 03:25:48;;;;;;;;;77.75;59.25;;;;;6.72;63.31;99500.84;5086816;28;8873;-73
2023/03/04 03:28:17;;;;;;;;;79.75;61.75;;;;;6.96;63.22;99498.97;5085534;28;8834;-72
2023/03/04 03:30:46;;;;;;;;;76.25;58.25;;;;;7.03;63.34;99495.44;5088708;28;8838;-75
2023/03/04 03:33:16;;;;;;;;;79.25;61.00;;;;;7.30;61.62;99494.34;5086539;28;8962;-74
2023/03/04 03:35:45;;;;;;;;;77.50;60.50;;;;;7.36;62.12;99491.69;5103528;28;8862;-74
2023/03/04 03:38:14;;;;;;;;;73.00;57.75;;;;;7.45;61.72;99495.97;5086857;28;8880;-74
2023/03/04 03:40:43;;;;;;;;;78.50;62.75;;;;;7.28;62.00;99493.50;5086909;28;8862;-74
2023/03/04 03:43:12;;;;;;;;;79.25;61.00;;;;;7.29;61.66;99493.47;5087859;28;8845;-74
2023/03/04 03:45:40;;;;;;;;;72.75;56.25;;;;;7.44;61.20;99492.50;5087280;28;8834;-73
2023/03/04 03:48:09;;;;;;;;;71.75;55.50;;;;;7.03;62.27;99495.44;5072423;28;8980;-73
2023/03/04 03:50:40;;;;;;;;;78.50;60.50;;;;;7.12;62.72;99490.16;5051961;28;8864;-73
2023/03/04 03:53:08;;;;;;;;;77.00;57.75;;;;;7.30;62.13;99494.34;5050986;28;8860;-74
2023/03/04 03:55:37;;;;;;;;;73.75;56.25;;;;;7.11;62.19;99495.38;5045687;28;8860;-75
2023/03/04 03:58:06;;;;;;;;;76.50;59.50;;;;;7.22;62.20;99491.78;5029538;28;8895;-73
2023/03/04 04:00:35;;;;;;;;;74.75;57.00;;;;;7.33;62.10;99486.50;5029271;28;8887;-73
2023/03/04 04:03:04;;;;;;;;;75.25;59.25;;;;;7.37;62.05;99492.56;5033307;28;9049;-72
2023/03/04 04:05:33;;;;;;;;;78.25;57.75;;;;;7.51;61.49;99487.19;5043156;28;8839;-73
2023/03/04 04:08:03;;;;;;;;;78.75;59.00;;;;;7.66;60.89;99484.41;5009776;28;8859;-74
2023/03/04 04:10:32;;;;;;;;;78.25;59.25;;;;;7.63;61.72;99485.34;5028801;28;8843;-74
2023/03/04 04:13:00;;;;;;;;;66.50;50.50;;;;;7.76;60.51;99479.97;5028017;28;8851;-75
2023/03/04 04:15:29;;;;;;;;;76.25;58.50;;;;;7.62;61.42;99477.50;5028641;28;8973;-72
2023/03/04 04:17:58;;;;;;;;;71.75;58.25;;;;;7.75;60.37;99478.25;5027075;28;8903;-74
2023/03/04 04:20:27;;;;;;;;;65.25;51.25;;;;;7.87;60.52;99478.97;5028233;28;8870;-72
2023/03/04 04:22:55;;;;;;;;;13.75;2.25;;;;;7.32;61.41;99486.50;5055810;28;8855;-73
2023/03/04 04:25:26;;;;;;;;;72.25;57.25;;;;;7.46;61.57;99479.41;5036910;28;8857;-73
2023/03/04 04:27:55;;;;;;;;;87.75;67.75;;;;;7.43;61.26;99476.81;5059289;28;8849;-77
2023/03/04 04:30:24;;;;;;;;;71.00;55.25;;;;;6.81;62.84;99479.00;5045803;28;8855;-74
2023/03/04 04:32:53;;;;;;;;;71.50;55.25;;;;;7.09;61.58;99479.69;5083722;28;8873;-73
2023/03/04 04:35:22;;;;;;;;;69.50;56.00;;;;;7.32;61.70;99476.03;5084198;28;8838;-74
2023/03/04 04:37:50;;;;;;;;;65.75;52.00;;;;;7.12;61.16;99479.69;5082387;28;8858;-75
2023/03/04 04:40:19;;;;;;;;;66.25;53.75;;;;;6.83;63.03;99479.84;5084180;28;8838;-74
2023/03/04 04:42:50;;;;;;;;;72.25;55.75;;;;;6.51;64.46;99478.31;5049830;28;8976;-74
2023/03/04 04:45:18;;;;;;;;;74.25;58.25;;;;;6.30;64.53;99476.66;5083869;28;8858;-74
2023/03/04 04:47:47;;;;;;;;;72.75;56.25;;;;;5.95;66.59;99487.28;5083633;28;9670;-74
2023/03/04 04:50:16;;;;;;;;;75.50;56.50;;;;;6.00;66.65;99485.50;5050676;28;9701;-76
2023/03/04 04:52:45;;;;;;;;;74.25;57.25;;;;;6.09;65.95;99481.09;5083840;28;8919;-74
2023/03/04 04:55:14;;;;;;;;;75.25;53.00;;;;;5.17;69.69;99494.28;5082059;28;8888;-76
2023/03/04 04:57:43;;;;;;;;;75.25;56.25;;;;;5.26;69.83;99488.19;5083675;28;9634;-75
2023/03/04 05:00:14;;;;;;;;;78.75;59.75;;;;;5.92;67.44;99486.38;5084808;28;8830;-73
2023/03/04 05:02:43;;;;;;;;;73.00;55.50;;;;;6.29;66.10;99478.41;5083460;28;8857;-73
2023/03/04 05:05:12;;;;;;;;;68.25;56.25;;;;;6.58;64.97;99476.53;5047711;28;8953;-74
2023/03/04 05:07:40;;;;;;;;;73.75;56.75;;;;;6.83;64.35;99474.63;5045982;28;8886;-72
2023/03/04 05:10:10;;;;;;;;;67.50;54.25;;;;;6.89;63.19;99478.13;5043900;28;8853;-73
2023/03/04 05:12:39;;;;;;;;;70.00;55.25;;;;;6.96;63.42;99470.22;5012659;28;8875;-73
2023/03/04 05:15:09;;;;;;;;;72.50;54.50;;;;;7.08;61.98;99475.38;4994140;28;8968;-75
2023/03/04 05:17:39;;;;;;;;;62.00;49.75;;;;;7.29;62.14;99469.94;5045746;28;8872;-72
2023/03/04 05:20:09;;;;;;;;;113.75;101.75;;;;;7.37;61.71;99477.72;5061072;28;8841;-76
2023/03/04 05:22:38;;;;;;;;;61.50;48.00;;;;;7.22;61.16;99478.72;5045791;28;11338;-75
2023/03/04 05:25:07;;;;;;;;;67.50;54.50;;;;;7.40;61.39;99472.47;5061282;28;8887;-75
2023/03/04 05:27:35;;;;;;;;;67.50;52.25;;;;;7.33;61.67;99468.19;5007909;28;8959;-73
2023/03/04 05:30:05;;;;;;;;;64.25;51.75;;;;;7.49;60.33;99471.50;5045546;28;8954;-74
2023/03/04 05:32:34;;;;;;;;;66.25;51.75;;;;;7.58;60.41;99470.56;5045509;28;8947;-74
2023/03/04 05:35:06;;;;;;;;;64.50;49.25;;;;;7.64;59.83;99466.13;5060936;28;8861;-76
2023/03/04 05:37:34;;;;;;;;;66.50;52.25;;;;;7.58;59.78;99470.56;5042909;28;8857;-74
2023/03/04 05:40:04;;;;;;;;;64.00;47.50;;;;;7.49;59.94;99476.75;5060968;28;8857;-73
2023/03/04 05:42:33;;;;;;;;;62.00;50.25;;;;;7.62;59.76;99470.50;5045653;28;8875;-73
2023/03/04 05:45:03;;;;;;;;;65.00;53.00;;;;;7.79;58.78;99469.47;5044580;28;8869;-73
2023/03/04 05:47:31;;;;;;;;;59.25;46.75;;;;;7.89;58.73;99476.31;5045493;28;8869;-73
2023/03/04 05:50:00;;;;;;;;;65.00;50.25;;;;;7.99;57.95;99474.50;5045362;28;8887;-75
2023/03/04 05:52:30;;;;;;;;;62.50;51.25;;;;;8.09;58.21;99475.25;5043446;28;9016;-73
2023/03/04 05:54:59;;;;;;;;;61.00;47.75;;;;;8.16;57.78;99479.53;5024640;28;8922;-75
2023/03/04 05:57:28;;;;;;;;;61.00;46.75;;;;;8.24;57.53;99478.53;5045483;28;8868;-74
2023/03/04 06:00:00;;;;;;;;;67.75;51.50;;;;;8.25;57.29;99482.91;5043685;28;8940;-76
2023/03/04 06:02:28;;;;;;;;;64.25;52.25;;;;;8.14;56.87;99482.16;5043107;28;8873;-75
2023/03/04 06:04:57;;;;;;;;;60.50;50.50;;;;;8.21;56.72;99486.44;5043226;28;8853;-73
2023/03/04 06:07:26;;;;;;;;;63.50;51.50;;;;;8.30;57.22;99484.59;5062791;28;8836;-73
2023/03/04 06:09:56;;;;;;;;;64.00;51.50;;;;;7.94;57.61;99497.22;5062464;28;8836;-74
2023/03/04 06:12:25;;;;;;;;;65.00;51.75;;;;;7.82;57.93;99499.09;5029382;28;8997;-74
2023/03/04 06:14:54;;;;;;;;;68.75;53.75;;;;;7.15;59.82;99499.69;5027065;28;8858;-72
2023/03/04 06:17:23;;;;;;;;;64.75;52.50;;;;;7.37;58.95;99497.78;5029602;28;10050;-76
2023/03/04 06:19:52;;;;;;;;;68.00;51.25;;;;;7.28;59.68;99499.59;5060622;28;8858;-74
2023/03/04 06:22:20;;;;;;;;;63.00;47.25;;;;;6.36;63.36;99502.78;5061121;28;8844;-74
2023/03/04 06:24:49;;;;;;;;;68.00;54.00;;;;;5.53;66.30;99513.44;5063597;28;8864;-75
2023/03/04 06:27:19;;;;;;;;;65.75;51.00;;;;;6.03;64.98;99512.44;5063491;28;8888;-75
2023/03/04 06:29:48;;;;;;;;;69.25;55.25;;;;;6.36;63.84;99520.16;5047356;28;8856;-73
2023/03/04 06:32:17;;;;;;;;;66.00;52.50;;;;;6.54;63.20;99509.63;5067391;28;8961;-74
2023/03/04 06:34:46;;;;;;;;;69.00;55.50;;;;;6.82;62.48;99514.72;5058692;28;8853;-72
2023/03/04 06:37:15;;;;;;;;;69.25;53.75;;;;;6.54;62.87;99509.63;5052741;28;8844;-75
2023/03/04 06:39:44;;;;;;;;;68.25;54.50;;;;;6.97;61.75;99508.56;5048143;28;8876;-73
2023/03/04 06:42:12;;;;;;;;;68.50;54.50;;;;;6.34;63.77;99511.47;5065204;28;9010;-73
2023/03/04 06:44:43;;;;;;;;;74.00;55.50;;;;;6.98;62.08;99508.53;5049877;28;8896;-73
2023/03/04 06:47:11;;;;;;;;;73.00;54.75;;;;;6.93;62.37;99509.44;5050458;28;8975;-73
2023/03/04 06:49:41;;;;;;;;;65.25;52.25;;;;;6.66;62.07;99516.53;5050436;28;8853;-76
2023/03/04 06:52:11;;;;;;;;;69.00;55.25;;;;;6.85;62.50;99514.69;5050194;28;9011;-73
2023/03/04 06:54:40;;;;;;;;;69.50;53.00;;;;;7.07;61.23;99513.69;5048489;28;8864;-75
2023/03/04 06:57:09;;;;;;;;;68.00;55.00;;;;;6.73;62.79;99510.41;5049510;28;8865;-74
2023/03/04 06:59:38;;;;;;;;;68.00;53.50;;;;;6.96;61.60;99509.41;5050066;28;8857;-75
2023/03/04 07:02:11;;;;;;;;;69.25;54.25;;;;;7.40;61.46;99523.88;5065004;28;9018;-74
2023/03/04 07:04:40;;;;;;;;;76.50;59.00;;;;;7.44;60.03;99518.66;5049664;28;8836;-75
2023/03/04 07:07:10;;;;;;;;;73.00;58.00;;;;;7.64;59.51;99517.59;5048075;28;8877;-74
2023/03/04 07:09:39;;;;;;;;;75.25;53.75;;;;;7.72;59.59;99515.78;5048183;28;8861;-73
2023/03/04 07:12:08;;;;;;;;;74.00;56.50;;;;;7.90;59.01;99513.84;5062064;28;8852;-75
2023/03/04 07:14:37;;;;;;;;;67.75;54.25;;;;;8.10;58.49;99506.66;5030345;28;8853;-76
2023/03/04 07:17:05;;;;;;;;;62.50;51.00;;;;;8.18;57.82;99507.41;5064706;28;8868;-74
2023/03/04 07:19:35;;;;;;;;;61.00;48.25;;;;;8.42;57.17;99503.69;5049530;28;8881;-74
2023/03/04 07:22:04;;;;;;;;;66.75;54.75;;;;;8.56;56.46;99506.09;5049368;28;8957;-73
2023/03/04 07:24:33;;;;;;;;;67.75;53.25;;;;;8.62;55.85;99508.63;5048905;28;8981;-74
2023/03/04 07:27:02;;;;;;;;;67.25;52.75;;;;;8.11;57.26;99510.13;5045639;28;8849;-74
2023/03/04 07:29:31;;;;;;;;;66.25;54.75;;;;;8.41;56.93;99501.06;5047546;28;8934;-74
2023/03/04 07:32:00;;;;;;;;;63.50;51.50;;;;;8.61;56.26;99504.28;5047752;28;8954;-75
2023/03/04 07:34:29;;;;;;;;;70.00;55.50;;;;;8.80;55.64;99506.66;5048749;28;8853;-74
2023/03/04 07:36:59;;;;;;;;;65.75;48.50;;;;;8.98;55.35;99495.03;5048031;28;8995;-74
2023/03/04 07:39:28;;;;;;;;;66.00;54.00;;;;;9.12;54.64;99500.94;5080658;28;10009;-74
2023/03/04 07:41:57;;;;;;;;;69.50;55.50;;;;;9.20;54.29;99500.81;5008776;28;8971;-76
2023/03/04 07:44:26;;;;;;;;;67.25;50.25;;;;;9.34;54.04;99497.94;5053757;28;10301;-77
2023/03/04 07:46:54;;;;;;;;;67.25;54.25;;;;;9.46;53.68;99496.88;5064098;28;8865;-76
2023/03/04 07:49:23;;;;;;;;;63.00;51.00;;;;;9.55;53.28;99500.19;5013065;28;8869;-76
2023/03/04 07:51:52;;;;;;;;;71.25;55.25;;;;;9.58;53.02;99505.44;5049279;28;8987;-78
2023/03/04 07:54:22;;;;;;;;;67.75;53.00;;;;;9.67;52.88;99503.53;5049187;28;8964;-76
2023/03/04 07:56:52;;;;;;;;;67.00;53.75;;;;;9.69;53.08;99497.38;5049090;28;9756;-76
2023/03/04 07:59:21;;;;;;;;;68.25;53.50;;;;;9.74;52.85;99498.16;5064836;28;9578;-78
2023/03/04 08:01:51;;;;;;;;;67.00;53.25;;;;;9.85;52.55;99497.09;5049349;28;8869;-75
2023/03/04 08:04:20;;;;;;;;;68.50;54.00;;;;;9.92;52.34;99493.47;5047511;28;8861;-76
2023/03/04 08:06:49;;;;;;;;;70.50;56.75;;;;;9.82;52.04;99498.03;5048125;28;8845;-75
2023/03/04 08:09:18;;;;;;;;;69.50;53.75;;;;;9.52;51.98;99494.16;5063584;28;8891;-77
2023/03/04 08:11:48;;;;;;;;;66.25;54.25;;;;;9.61;52.52;99481.78;5047638;28;8971;-75
2023/03/04 08:14:17;;;;;;;;;66.25;52.50;;;;;9.61;52.51;99494.91;5032189;28;8902;-75
2023/03/04 08:16:46;;;;;;;;;69.25;53.00;;;;;9.67;52.48;99493.03;5059115;28;8893;-79
2023/03/04 08:19:15;;;;;;;;;72.50;54.00;;;;;9.80;52.24;99484.94;4998102;28;8878;-77
2023/03/04 08:21:44;;;;;;;;;63.75;51.00;;;;;9.75;52.23;99492.00;5062689;28;9649;-76
2023/03/04 08:24:13;;;;;;;;;69.00;54.00;;;;;9.84;51.51;99488.38;5051415;28;9602;-76
2023/03/04 08:26:45;;;;;;;;;67.25;53.50;;;;;10.11;51.42;99492.19;5073055;28;8844;-76
2023/03/04 08:29:19;;;;;;;;;70.75;52.50;;;;;9.61;51.87;99476.53;5038860;28;8926;-74
2023/03/04 08:31:48;;;;;;;;;64.50;52.75;;;;;9.90;51.48;99482.13;5047997;28;8950;-76
2023/03/04 08:34:18;;;;;;;;;68.75;54.75;;;;;10.00;51.23;99487.16;5046291;28;8926;-76
2023/03/04 08:36:47;;;;;;;;;72.75;54.00;;;;;10.15;50.99;99482.50;5048422;28;8849;-78
2023/03/04 08:39:18;;;;;;;;;68.75;54.25;;;;;9.33;52.68;99485.72;5029921;28;8885;-75
2023/03/04 08:41:47;;;;;;;;;69.75;55.75;;;;;9.74;51.98;99482.38;5061344;28;8868;-78
2023/03/04 08:44:18;;;;;;;;;67.50;52.50;;;;;9.80;52.14;99473.53;5058354;28;8844;-75
2023/03/04 08:46:47;;;;;;;;;72.25;55.25;;;;;9.71;51.67;99486.88;5042217;28;8849;-76
2023/03/04 08:49:16;;;;;;;;;69.25;55.50;;;;;9.77;51.60;99482.34;5070098;28;8849;-75
2023/03/04 08:51:44;;;;;;;;;71.25;54.50;;;;;10.00;51.25;99476.66;5047272;28;9413;-76
2023/03/04 08:54:13;;;;;;;;;71.50;55.25;;;;;9.97;51.01;99476.72;5046808;28;8909;-77
2023/03/04 08:56:42;;;;;;;;;67.50;52.75;;;;;10.18;50.97;99470.19;5065105;28;8875;-78
2023/03/04 08:59:11;;;;;;;;;67.75;54.75;;;;;10.44;49.87;99473.13;5044844;28;8867;-75
2023/03/04 09:01:41;;;;;;;;;66.00;52.00;;;;;10.64;49.60;99467.47;5040430;28;8884;-77
2023/03/04 09:04:10;;;;;;;;;67.00;53.75;;;;;10.45;49.25;99472.25;5042071;28;8852;-77
2023/03/04 09:06:39;;;;;;;;;67.50;53.25;;;;;10.47;49.89;99466.06;5048967;28;8907;-77
2023/03/04 09:09:08;;;;;;;;;67.00;52.25;;;;;10.74;49.27;99464.59;5048586;28;8861;-77
2023/03/04 09:11:37;;;;;;;;;66.25;53.25;;;;;10.98;48.63;99468.41;5045491;28;9612;-77
2023/03/04 09:14:06;;;;;;;;;67.75;54.00;;;;;11.12;48.03;99465.47;5046306;28;8842;-76
2023/03/04 09:16:35;;;;;;;;;69.75;54.00;;;;;11.22;47.38;99465.22;5046385;28;8940;-76
2023/03/04 09:19:05;;;;;;;;;68.00;55.00;;;;;11.45;47.56;99467.28;5045775;28;9032;-79
2023/03/04 09:21:33;;;;;;;;;68.25;51.00;;;;;11.01;46.86;99456.09;5061337;28;8988;-78
2023/03/04 09:24:03;;;;;;;;;67.25;54.25;;;;;10.93;48.45;99459.78;5029178;28;8838;-78
2023/03/04 09:26:31;;;;;;;;;64.50;52.75;;;;;10.83;48.26;99460.91;5028364;28;8993;-77
2023/03/04 09:29:02;;;;;;;;;56.75;45.00;;;;;10.60;48.08;99457.00;4995918;28;8854;-76
2023/03/04 09:31:31;;;;;;;;;66.00;54.00;;;;;10.87;48.12;99457.28;5045064;28;9706;-78
2023/03/04 09:34:00;;;;;;;;;66.75;53.50;;;;;10.92;47.46;99458.06;5028456;28;8912;-78
2023/03/04 09:36:30;;;;;;;;;71.50;56.50;;;;;10.50;48.03;99459.84;5012406;28;8865;-75
2023/03/04 09:39:00;;;;;;;;;71.75;57.00;;;;;9.51;51.44;99468.81;5027525;28;8842;-77
2023/03/04 09:41:36;;;;;;;;;75.00;56.25;;;;;9.92;50.52;99456.72;5028633;28;8858;-78
2023/03/04 09:44:15;;;;;;;;;68.25;54.25;;;;;10.05;50.25;99455.56;5046477;28;8968;-76
2023/03/04 09:46:46;;;;;;;;;71.75;57.00;;;;;9.70;51.08;99462.34;5047035;28;8877;-76
2023/03/04 09:49:17;;;;;;;;;64.75;51.25;;;;;9.81;50.42;99460.38;5046866;28;8937;-77
2023/03/04 09:51:57;;;;;;;;;66.75;54.00;;;;;10.01;50.25;99456.53;5047431;28;8861;-76
2023/03/04 09:54:54;;;;;;;;;74.00;58.00;;;;;9.57;50.80;99460.84;5044885;28;8884;-78
2023/03/04 09:57:30;;;;;;;;;69.00;55.00;;;;;10.37;50.01;99454.88;5063194;28;8884;-76
2023/03/04 10:00:18;;;;;;;;;68.00;52.00;;;;;10.41;49.74;99453.06;5028275;28;8885;-76
2023/03/04 10:03:05;;;;;;;;;65.50;52.25;;;;;10.91;48.36;99448.44;5045202;28;9625;-77
2023/03/04 10:05:39;;;;;;;;;65.50;50.75;;;;;10.27;48.25;99444.59;5030373;28;9711;-77
2023/03/04 10:08:34;;;;;;;;;61.50;47.25;;;;;9.79;49.23;99443.81;5039220;28;8950;-79
2023/03/04 10:11:09;;;;;;;;;62.75;50.50;;;;;9.40;51.27;99437.50;5062200;28;9491;-75
2023/03/04 10:13:44;;;;;;;;;60.00;49.50;;;;;9.39;51.33;99444.50;5045468;28;8918;-77
2023/03/04 10:16:20;;;;;;;;;58.00;47.50;;;;;8.42;53.41;99446.03;5051226;28;8848;-78
2023/03/04 10:18:52;;;;;;;;;61.25;48.25;;;;;8.67;53.69;99443.06;5066169;28;8886;-78
2023/03/04 10:21:30;;;;;;;;;64.00;51.75;;;;;8.30;54.96;99435.72;5027939;28;8856;-78
2023/03/04 10:24:11;;;;;;;;;59.00;46.25;;;;;9.27;52.31;99433.38;5009869;28;8893;-79
2023/03/04 10:26:42;;;;;;;;;57.00;47.00;;;;;8.72;51.38;99432.50;5008824;28;8902;-78
2023/03/04 10:29:16;;;;;;;;;62.25;49.75;;;;;7.74;55.50;99427.66;5028341;28;8845;-76
2023/03/04 10:31:46;;;;;;;;;66.00;49.75;;;;;7.80;55.63;99424.13;5012494;28;8884;-80
2023/03/04 10:34:17;;;;;;;;;61.00;50.50;;;;;8.24;54.35;99420.06;5030143;28;8995;-80
2023/03/04 10:36:56;;;;;;;;;62.00;49.50;;;;;8.32;53.72;99417.38;5013154;28;8853;-82
2023/03/04 10:39:30;;;;;;;;;63.00;50.00;;;;;8.55;54.21;99406.56;5013120;28;8888;-81
2023/03/04 10:42:01;;;;;;;;;53.25;42.25;;;;;8.65;51.54;99408.16;4980932;28;8884;-81
2023/03/04 10:44:33;;;;;;;;;55.25;44.75;;;;;7.87;54.18;99408.31;5028691;28;8930;-82
2023/03/04 10:47:02;;;;;;;;;55.75;46.50;;;;;7.83;53.89;99411.84;5029312;28;8852;-80
2023/03/04 10:49:31;;;;;;;;;48.50;41.25;;;;;7.71;53.49;99409.38;4995958;28;8844;-80
2023/03/04 10:52:15;;;;;;;;;59.00;46.75;;;;;7.91;54.50;99403.91;4998576;28;8875;-84
2023/03/04 10:54:50;;;;;;;;;58.25;45.75;;;;;8.76;52.57;99400.13;5038812;28;8976;-83
2023/03/04 10:57:21;;;;;;;;;64.75;51.75;;;;;9.07;50.75;99391.78;5052016;28;8868;-80
2023/03/04 10:59:56;;;;;;;;;63.75;50.25;;;;;9.12;51.66;99385.56;5050343;28;8849;-82
2023/03/04 11:02:28;;;;;;;;;60.25;48.75;;;;;9.54;50.51;99384.78;5059051;28;8877;-83
2023/03/04 11:05:07;;;;;;;;;54.75;46.25;;;;;8.07;53.04;99389.72;5050349;28;8842;-82
2023/03/04 11:07:41;;;;;;;;;47.00;38.75;;;;;7.49;55.06;99387.81;5070151;28;8935;-82
2023/03/04 11:10:28;;;;;;;;;67.75;51.00;;;;;8.36;53.41;99377.16;5017293;28;8976;-80
2023/03/04 11:13:01;;;;;;;;;59.00;46.75;;;;;8.04;52.73;99379.31;5063368;28;8853;-80
2023/03/04 11:15:44;;;;;;;;;48.75;42.50;;;;;7.27;54.67;99380.22;5069781;28;9777;-82
2023/03/04 11:18:14;;;;;;;;;44.75;40.50;;;;;6.54;56.95;99384.28;5074545;28;8845;-80
2023/03/04 11:20:47;;;;;;;;;57.50;43.75;;;;;6.54;58.23;99386.03;5051385;28;9034;-80
2023/03/04 11:23:22;;;;;;;;;57.50;48.00;;;;;6.91;57.33;99360.53;5067050;28;8852;-82
2023/03/04 11:25:58;;;;;;;;;63.75;49.25;;;;;7.06;56.32;99364.72;5049610;28;9645;-83
2023/03/04 11:28:39;;;;;;;;;61.50;48.25;;;;;7.15;55.35;99355.94;5065182;28;8942;-83
2023/03/04 11:31:14;;;;;;;;;56.75;46.75;;;;;7.25;56.30;99347.13;5050247;28;9551;-82
2023/03/04 11:33:51;;;;;;;;;60.75;47.75;;;;;8.17;54.69;99340.72;5053820;28;8857;-82
2023/03/04 11:36:33;;;;;;;;;57.75;46.50;;;;;8.21;52.58;99345.06;5050045;28;8910;-82
2023/03/04 11:39:05;;;;;;;;;58.25;46.00;;;;;6.99;56.42;99339.53;5049993;28;8852;-83
2023/03/04 11:41:41;;;;;;;;;65.00;52.00;;;;;6.97;57.13;99343.91;5056040;28;8867;-82
2023/03/04 11:44:14;;;;;;;;;65.75;54.00;;;;;7.83;55.46;99333.31;5019792;28;8841;-83
2023/03/04 11:46:58;;;;;;;;;61.25;52.50;;;;;8.32;54.14;99323.94;5051796;28;8853;-83